East Blacksea — T2ZH3 — position and weather

sailwx.info

Track history (hours):
 
Tides and Currents Weather Stations Pressure Air Temp Water Temp Dewpoint Dewpoint Depression Visibility Wind Speed Wind Dir Waves Ship Positions

East Blacksea

Last reported at 2015-Apr-23 10:09 UTC. Time now 2015-Apr-28 18:16 UTC.
Position N 40°59' E 028°60'.

Length 69 m; draft 2.3 m.

Type: Ship. MMSI: 572341210.

Date/timePositionNaut miles runAvg speedWind from/ knotsBaromVisibWave heightAir tempDewpointWater temp
2015-Apr-23 10:09N 40°59' E 028°60'4 6.3
2015-Apr-23 09:33N 40°56' E 028°58'3 0.2
2015-Apr-22 17:25N 40°58' E 028°54'0 0.0
2015-Apr-22 11:29N 40°58' E 028°54'6 5.2
2015-Apr-22 10:19N 40°52' E 028°53'8 8.3
2015-Apr-22 09:23N 40°50' E 028°43'  
2015-Apr-18 01:06N 35°46' E 015°12'4 7.8
2015-Apr-18 00:33N 35°46' E 015°06'8 7.8
2015-Apr-17 23:33N 35°45' E 014°57'8 7.5
2015-Apr-17 22:33N 35°44' E 014°48'7 7.2
2015-Apr-17 21:34N 35°43' E 014°39'9 7.2
2015-Apr-17 20:19N 35°42' E 014°28'6 7.4
2015-Apr-17 19:33N 35°41' E 014°21'8 7.8
2015-Apr-17 18:34N 35°40' E 014°12'8 7.8
2015-Apr-17 17:33N 35°38' E 014°02'8 7.6
2015-Apr-17 16:33N 35°34' E 013°54'8 7.7
2015-Apr-17 15:33N 35°30' E 013°46'8 8.2
2015-Apr-17 14:33N 35°24' E 013°39'8 8.2
2015-Apr-17 13:32N 35°19' E 013°31'8 8.1
2015-Apr-17 12:33N 35°14' E 013°23'8 8.1
2015-Apr-17 11:33N 35°10' E 013°15'122 7.9
2015-Apr-16 20:07N 34°24' E 010°57'5 7.7
2015-Apr-16 19:32N 34°26' E 010°52'15 0.6
2015-Apr-15 18:19N 34°41' E 010°51'  
Track history (hours):
 
Tides and Currents Weather Stations Pressure Air Temp Water Temp Dewpoint Dewpoint Depression Visibility Wind Speed Wind Dir Waves Ship Positions

East Blacksea

Last reported at 2015-Apr-23 10:09 UTC. Time now 2015-Apr-28 18:16 UTC.
Position N 40°59' E 028°60'.

Length 69 m; draft 2.3 m.

Type: Ship. MMSI: 572341210.

Date/timePositionNaut miles runAvg speedWind from/ knotsBaromVisibWave heightAir tempDewpointWater temp
2015-Apr-23 10:09N 40°59' E 028°60'4 6.3
2015-Apr-23 09:33N 40°56' E 028°58'3 0.2
2015-Apr-22 17:25N 40°58' E 028°54'0 0.0
2015-Apr-22 11:29N 40°58' E 028°54'6 5.2
2015-Apr-22 10:19N 40°52' E 028°53'8 8.3
2015-Apr-22 09:23N 40°50' E 028°43'  
2015-Apr-18 01:06N 35°46' E 015°12'4 7.8
2015-Apr-18 00:33N 35°46' E 015°06'8 7.8
2015-Apr-17 23:33N 35°45' E 014°57'8 7.5
2015-Apr-17 22:33N 35°44' E 014°48'7 7.2
2015-Apr-17 21:34N 35°43' E 014°39'9 7.2
2015-Apr-17 20:19N 35°42' E 014°28'6 7.4
2015-Apr-17 19:33N 35°41' E 014°21'8 7.8
2015-Apr-17 18:34N 35°40' E 014°12'8 7.8
2015-Apr-17 17:33N 35°38' E 014°02'8 7.6
2015-Apr-17 16:33N 35°34' E 013°54'8 7.7
2015-Apr-17 15:33N 35°30' E 013°46'8 8.2
2015-Apr-17 14:33N 35°24' E 013°39'8 8.2
2015-Apr-17 13:32N 35°19' E 013°31'8 8.1
2015-Apr-17 12:33N 35°14' E 013°23'8 8.1
2015-Apr-17 11:33N 35°10' E 013°15'122 7.9
2015-Apr-16 20:07N 34°24' E 010°57'5 7.7
2015-Apr-16 19:32N 34°26' E 010°52'15 0.6
2015-Apr-15 18:19N 34°41' E 010°51'  

Dump ship's entire track history